This is the latest recevied weather packets stored in our database for station/object KD8OUK. If no packets are shown the sender has not sent any weather packets the latest 10 day(s).
| Time | Temp. | Humidity | Pressure | Rain* | Wind** | Luminosity | Snow |
|---|---|---|---|---|---|---|---|
| 1777675219 | 8.89° C | 68% | 1015.4 hPa | 0 mm | - | - | - |
| 1777674929 | 9.44° C | 65% | 1015.4 hPa | 0 mm | - | - | - |
| 1777674622 | 9.44° C | 63% | 1015.4 hPa | 0 mm | - | - | - |
| 1777674334 | 10° C | 63% | 1015.4 hPa | 0 mm | - | - | - |
| 1777674026 | 10° C | 64% | 1015.4 hPa | 0 mm | - | - | - |
| 1777673717 | 10.56° C | 61% | 1015.4 hPa | 0 mm | - | - | - |
| 1777673425 | 10.56° C | 62% | 1015.4 hPa | 0 mm | - | - | - |
| 1777673118 | 10.56° C | 63% | 1015.4 hPa | 0 mm | - | - | - |
| 1777672828 | 11.11° C | 65% | 1015.5 hPa | 0 mm | - | - | - |
| 1777672520 | 10.56° C | 66% | 1015.5 hPa | 0 mm | - | - | - |
| 1777672231 | 10° C | 67% | 1015.4 hPa | 0 mm | - | - | - |
| 1777671924 | 9.44° C | 68% | 1015.4 hPa | 0 mm | - | - | - |
| 1777671633 | 9.44° C | 68% | 1015.4 hPa | 0 mm | - | - | - |
| 1777671325 | 9.44° C | 68% | 1015.2 hPa | 0 mm | - | - | - |
| 1777671017 | 9.44° C | 68% | 1015.2 hPa | 0 mm | - | - | - |
| 1777670727 | 9.44° C | 67% | 1015.1 hPa | 0 mm | - | - | - |
| 1777670420 | 9.44° C | 66% | 1015 hPa | 0 mm | - | - | - |
| 1777670130 | 10° C | 65% | 1015 hPa | 0 mm | - | - | - |
| 1777669822 | 10° C | 64% | 1015 hPa | 0 mm | - | - | - |
| 1777669532 | 10° C | 64% | 1015 hPa | 0 mm | - | - | - |
| 1777669224 | 10.56° C | 63% | 1015 hPa | 0 mm | - | - | - |
| 1777668916 | 10° C | 64% | 1015 hPa | 0 mm | - | - | - |
| 1777668627 | 11.11° C | 63% | 1015 hPa | 0 mm | - | - | - |
| 1777668319 | 10.56° C | 63% | 1015 hPa | 0 mm | - | - | - |
| 1777668022 | 11.11° C | 61% | 1015 hPa | 0 mm | - | - | - |
* Rain latest hour (hover to see other rain measurements)
** Current wind speed in m/s (hover to see current wind gust speed)